Time,TemperatureF,DewpointF,PressureIn,WindDirection,WindDirectionDegrees,WindSpeedMPH,WindSpeedGustMPH,Humidity,HourlyPrecipIn,Conditions,Clouds,dailyrainin,SolarRadiationWatts/m^2,SoftwareType,DateUTC
2013-11-21 00:01:00,33.0,31.0,29.63,NNW,337,1.0,4.0,94,0.00,,,0.63,0.000000,,2013-11-21 08:01:00,
2013-11-21 00:42:00,33.0,31.0,29.63,NNW,337,1.0,4.0,94,0.00,,,0.63,0.000000,,2013-11-21 08:42:00,
2013-11-21 00:52:00,33.0,31.0,29.63,NNW,337,1.0,4.0,94,0.00,,,0.63,0.000000,,2013-11-21 08:52:00,
2013-11-21 01:01:00,32.0,30.0,29.62,East,89,2.0,5.0,93,0.00,,,0.56,0.000000,,2013-11-21 09:01:00,
2013-11-21 01:43:00,32.0,30.0,29.62,East,89,2.0,5.0,93,0.00,,,0.56,0.000000,,2013-11-21 09:43:00,
2013-11-21 01:53:00,32.0,30.0,29.62,East,89,2.0,5.0,93,0.00,,,0.56,0.000000,,2013-11-21 09:53:00,
2013-11-21 02:01:00,32.0,30.0,29.64,NW,314,2.0,7.0,93,0.00,,,0.52,0.000000,,2013-11-21 10:01:00,
2013-11-21 02:42:00,32.0,30.0,29.64,NW,314,2.0,7.0,93,0.00,,,0.52,0.000000,,2013-11-21 10:42:00,
2013-11-21 02:53:00,32.0,30.0,29.64,NW,314,2.0,7.0,93,0.00,,,0.52,0.000000,,2013-11-21 10:53:00,
2013-11-21 03:01:00,32.0,30.0,29.67,NW,308,2.0,8.0,94,0.00,,,0.52,0.000000,,2013-11-21 11:01:00,
2013-11-21 03:43:00,32.0,30.0,29.67,NW,308,2.0,8.0,94,0.00,,,0.52,0.000000,,2013-11-21 11:43:00,
2013-11-21 03:52:00,32.0,30.0,29.67,NW,308,2.0,8.0,94,0.00,,,0.52,0.000000,,2013-11-21 11:52:00,
2013-11-21 04:01:00,33.0,31.0,29.70,NNW,328,3.0,9.0,91,0.00,,,0.50,0.000000,,2013-11-21 12:01:00,
2013-11-21 04:42:00,33.0,31.0,29.70,NNW,328,3.0,9.0,91,0.00,,,0.50,0.000000,,2013-11-21 12:42:00,
2013-11-21 04:52:00,33.0,31.0,29.70,NNW,328,3.0,9.0,91,0.00,,,0.50,0.000000,,2013-11-21 12:52:00,
2013-11-21 05:01:00,32.0,30.0,29.73,NNW,333,2.0,6.0,91,0.00,,,0.50,0.000000,,2013-11-21 13:01:00,
2013-11-21 05:22:00,32.0,30.0,29.73,NNW,333,2.0,6.0,91,0.00,,,0.50,0.000000,,2013-11-21 13:22:00,
2013-11-21 05:32:00,32.0,30.0,29.73,NNW,333,2.0,6.0,91,0.00,,,0.50,0.000000,,2013-11-21 13:32:00,
2013-11-21 05:42:00,32.0,30.0,29.73,NNW,333,2.0,6.0,91,0.00,,,0.50,0.000000,,2013-11-21 13:42:00,
2013-11-21 05:52:00,32.0,30.0,29.73,NNW,333,2.0,6.0,91,0.00,,,0.50,0.000000,,2013-11-21 13:52:00,
2013-11-21 06:01:00,31.0,28.0,29.80,NNW,336,3.0,13.0,88,0.00,,,0.50,0.000000,,2013-11-21 14:01:00,
2013-11-21 06:42:00,31.0,28.0,29.80,NNW,336,3.0,13.0,88,0.00,,,0.50,0.000000,,2013-11-21 14:42:00,
2013-11-21 06:52:00,31.0,28.0,29.80,NNW,336,3.0,13.0,88,0.00,,,0.50,0.000000,,2013-11-21 14:52:00,
2013-11-21 07:01:00,29.0,25.0,29.85,NW,322,4.0,11.0,84,0.01,,,0.51,0.000000,,2013-11-21 15:01:00,
2013-11-21 07:43:00,29.0,25.0,29.85,NW,322,4.0,11.0,84,0.01,,,0.51,0.000000,,2013-11-21 15:43:00,
2013-11-21 07:53:00,29.0,25.0,29.85,NW,322,4.0,11.0,84,0.01,,,0.51,0.000000,,2013-11-21 15:53:00,
2013-11-21 08:01:00,29.0,25.0,29.91,NW,321,3.0,10.0,85,0.00,,,0.51,13.000000,,2013-11-21 16:01:00,
2013-11-21 08:42:00,29.0,25.0,29.91,NW,321,3.0,10.0,85,0.00,,,0.51,13.000000,,2013-11-21 16:42:00,
2013-11-21 08:53:00,29.0,25.0,29.91,NW,321,3.0,10.0,85,0.00,,,0.51,13.000000,,2013-11-21 16:53:00,
2013-11-21 09:01:00,30.0,22.0,29.94,NW,312,4.0,12.0,73,0.00,,,0.51,70.000000,,2013-11-21 17:01:00,
2013-11-21 09:42:00,30.0,22.0,29.94,NW,312,4.0,12.0,73,0.00,,,0.51,70.000000,,2013-11-21 17:42:00,
2013-11-21 09:52:00,30.0,22.0,29.94,NW,312,4.0,12.0,73,0.00,,,0.51,70.000000,,2013-11-21 17:52:00,
2013-11-21 10:01:00,30.0,22.0,29.98,NNW,328,4.0,13.0,71,0.00,,,0.51,72.000000,,2013-11-21 18:01:00,
2013-11-21 10:42:00,30.0,22.0,29.98,NNW,328,4.0,13.0,71,0.00,,,0.51,72.000000,,2013-11-21 18:42:00,
2013-11-21 10:52:00,30.0,22.0,29.98,NNW,328,4.0,13.0,71,0.00,,,0.51,72.000000,,2013-11-21 18:52:00,
2013-11-21 11:01:00,31.0,20.0,29.99,NNE,18,5.0,14.0,62,0.00,,,0.49,90.000000,,2013-11-21 19:01:00,
2013-11-21 11:22:00,31.0,20.0,29.99,NNE,18,5.0,14.0,62,0.00,,,0.49,90.000000,,2013-11-21 19:22:00,
2013-11-21 11:33:00,31.0,20.0,29.99,NNE,18,5.0,14.0,62,0.00,,,0.49,90.000000,,2013-11-21 19:33:00,
2013-11-21 11:42:00,31.0,20.0,29.99,NNE,18,5.0,14.0,62,0.00,,,0.49,90.000000,,2013-11-21 19:42:00,
2013-11-21 11:52:00,31.0,20.0,29.99,NNE,18,5.0,14.0,62,0.00,,,0.49,90.000000,,2013-11-21 19:52:00,
2013-11-21 12:01:00,32.0,14.0,29.96,North,9,5.0,16.0,47,0.00,,,0.47,221.000000,,2013-11-21 20:01:00,
2013-11-21 12:22:00,32.0,14.0,29.96,North,9,5.0,16.0,47,0.00,,,0.47,221.000000,,2013-11-21 20:22:00,
2013-11-21 12:32:00,32.0,14.0,29.96,North,9,5.0,16.0,47,0.00,,,0.47,221.000000,,2013-11-21 20:32:00,
2013-11-21 12:42:00,32.0,14.0,29.96,North,9,5.0,16.0,47,0.00,,,0.47,221.000000,,2013-11-21 20:42:00,
2013-11-21 12:52:00,32.0,14.0,29.96,North,9,5.0,16.0,47,0.00,,,0.47,221.000000,,2013-11-21 20:52:00,
2013-11-21 13:01:00,32.0,12.0,29.97,NNW,341,6.0,19.0,43,0.00,,,0.41,113.000000,,2013-11-21 21:01:00,
2013-11-21 13:22:00,32.0,12.0,29.97,NNW,341,6.0,19.0,43,0.00,,,0.41,113.000000,,2013-11-21 21:22:00,
2013-11-21 13:34:00,32.0,12.0,29.97,NNW,341,6.0,19.0,43,0.00,,,0.41,113.000000,,2013-11-21 21:34:00,
2013-11-21 13:43:00,32.0,12.0,29.97,NNW,341,6.0,19.0,43,0.00,,,0.41,113.000000,,2013-11-21 21:43:00,
2013-11-21 13:54:00,32.0,12.0,29.97,NNW,341,6.0,19.0,43,0.00,,,0.41,113.000000,,2013-11-21 21:54:00,
2013-11-21 14:01:00,33.0,14.0,29.98,North,350,4.0,21.0,45,0.00,,,0.37,53.000000,,2013-11-21 22:01:00,
2013-11-21 14:23:00,33.0,14.0,29.98,North,350,4.0,21.0,45,0.00,,,0.37,53.000000,,2013-11-21 22:23:00,
2013-11-21 14:33:00,33.0,14.0,29.98,North,350,4.0,21.0,45,0.00,,,0.37,53.000000,,2013-11-21 22:33:00,
2013-11-21 14:43:00,33.0,14.0,29.98,North,350,4.0,21.0,45,0.00,,,0.37,53.000000,,2013-11-21 22:43:00,
2013-11-21 14:53:00,33.0,14.0,29.98,North,350,4.0,21.0,45,0.00,,,0.37,53.000000,,2013-11-21 22:53:00,
2013-11-21 15:01:00,33.0,15.0,30.00,NNE,22,4.0,18.0,48,0.00,,,0.33,87.000000,,2013-11-21 23:01:00,
2013-11-21 15:22:00,33.0,15.0,30.00,NNE,22,4.0,18.0,48,0.00,,,0.33,87.000000,,2013-11-21 23:22:00,
2013-11-21 15:33:00,33.0,15.0,30.00,NNE,22,4.0,18.0,48,0.00,,,0.33,87.000000,,2013-11-21 23:33:00,
2013-11-21 15:42:00,33.0,15.0,30.00,NNE,22,4.0,18.0,48,0.00,,,0.33,87.000000,,2013-11-21 23:42:00,
2013-11-21 15:53:00,33.0,15.0,30.00,NNE,22,4.0,18.0,48,0.00,,,0.33,87.000000,,2013-11-21 23:53:00,
2013-11-21 16:01:00,32.0,16.0,30.03,NNW,344,6.0,20.0,52,0.00,,,-99.99,25.000000,,2013-11-22 00:01:00,
2013-11-21 16:22:00,32.0,16.0,30.03,NNW,344,6.0,20.0,52,0.00,,,-99.99,25.000000,,2013-11-22 00:22:00,
2013-11-21 16:32:00,32.0,16.0,30.03,NNW,344,6.0,20.0,52,0.00,,,-99.99,25.000000,,2013-11-22 00:32:00,
2013-11-21 16:42:00,32.0,16.0,30.03,NNW,344,6.0,20.0,52,0.00,,,-99.99,25.000000,,2013-11-22 00:42:00,
2013-11-21 16:52:00,32.0,16.0,30.03,NNW,344,6.0,20.0,52,0.00,,,-99.99,25.000000,,2013-11-22 00:52:00,
2013-11-21 17:01:00,32.0,16.0,30.08,North,350,4.0,22.0,52,0.00,,,0.17,11.000000,,2013-11-22 01:01:00,
2013-11-21 17:22:00,32.0,16.0,30.08,North,350,4.0,22.0,52,0.00,,,0.17,11.000000,,2013-11-22 01:22:00,
2013-11-21 17:32:00,32.0,16.0,30.08,North,350,4.0,22.0,52,0.00,,,0.17,11.000000,,2013-11-22 01:32:00,
2013-11-21 17:42:00,32.0,16.0,30.08,North,350,4.0,22.0,52,0.00,,,0.17,11.000000,,2013-11-22 01:42:00,
2013-11-21 17:52:00,32.0,16.0,30.08,North,350,4.0,22.0,52,0.00,,,0.17,11.000000,,2013-11-22 01:52:00,
2013-11-21 18:01:00,32.0,15.0,30.10,NNW,328,6.0,15.0,50,0.00,,,0.17,0.000000,,2013-11-22 02:01:00,
2013-11-21 18:22:00,32.0,15.0,30.10,NNW,328,6.0,15.0,50,0.00,,,0.17,0.000000,,2013-11-22 02:22:00,
2013-11-21 18:32:00,32.0,15.0,30.10,NNW,328,6.0,15.0,50,0.00,,,0.17,0.000000,,2013-11-22 02:32:00,
2013-11-21 18:42:00,32.0,15.0,30.10,NNW,328,6.0,15.0,50,0.00,,,0.17,0.000000,,2013-11-22 02:42:00,
2013-11-21 18:53:00,32.0,15.0,30.10,NNW,328,6.0,15.0,50,0.00,,,0.17,0.000000,,2013-11-22 02:53:00,
2013-11-21 19:01:00,32.0,15.0,30.12,SW,236,4.0,12.0,50,0.00,,,0.06,0.000000,,2013-11-22 03:01:00,
2013-11-21 19:22:00,32.0,15.0,30.12,SW,236,4.0,12.0,50,0.00,,,0.06,0.000000,,2013-11-22 03:22:00,
2013-11-21 19:33:00,32.0,15.0,30.12,SW,236,4.0,12.0,50,0.00,,,0.06,0.000000,,2013-11-22 03:33:00,
2013-11-21 19:43:00,32.0,15.0,30.12,SW,236,4.0,12.0,50,0.00,,,0.06,0.000000,,2013-11-22 03:43:00,
2013-11-21 19:54:00,32.0,15.0,30.12,SW,236,4.0,12.0,50,0.00,,,0.06,0.000000,,2013-11-22 03:54:00,
2013-11-21 20:01:00,31.0,15.0,30.12,NNE,33,4.0,16.0,52,0.00,,,0.01,0.000000,,2013-11-22 04:01:00,
2013-11-21 20:43:00,31.0,15.0,30.12,NNE,33,4.0,16.0,52,0.00,,,0.01,0.000000,,2013-11-22 04:43:00,
2013-11-21 20:53:00,31.0,15.0,30.12,NNE,33,4.0,16.0,52,0.00,,,0.01,0.000000,,2013-11-22 04:53:00,
2013-11-21 21:01:00,31.0,12.0,30.14,NW,325,5.0,20.0,45,0.00,,,0.01,0.000000,,2013-11-22 05:01:00,
2013-11-21 21:22:00,31.0,12.0,30.14,NW,325,5.0,20.0,45,0.00,,,0.01,0.000000,,2013-11-22 05:22:00,
2013-11-21 21:32:00,31.0,12.0,30.14,NW,325,5.0,20.0,45,0.00,,,0.01,0.000000,,2013-11-22 05:32:00,
2013-11-21 21:43:00,31.0,12.0,30.14,NW,325,5.0,20.0,45,0.00,,,0.01,0.000000,,2013-11-22 05:43:00,
2013-11-21 21:52:00,31.0,12.0,30.14,NW,325,5.0,20.0,45,0.00,,,0.01,0.000000,,2013-11-22 05:52:00,
2013-11-21 22:01:00,31.0,11.0,30.19,NW,318,5.0,21.0,42,0.00,,,0.01,0.000000,,2013-11-22 06:01:00,
2013-11-21 22:42:00,31.0,11.0,30.19,NW,318,5.0,21.0,42,0.00,,,0.01,0.000000,,2013-11-22 06:42:00,
2013-11-21 22:52:00,31.0,11.0,30.19,NW,318,5.0,21.0,42,0.00,,,0.01,0.000000,,2013-11-22 06:52:00,
2013-11-21 23:01:00,30.0,11.0,30.22,WNW,294,4.0,14.0,44,0.00,,,0.01,0.000000,,2013-11-22 07:01:00,
2013-11-21 23:42:00,30.0,11.0,30.22,WNW,294,4.0,14.0,44,0.00,,,0.01,0.000000,,2013-11-22 07:42:00,
2013-11-21 23:52:00,30.0,11.0,30.22,WNW,294,4.0,14.0,44,0.00,,,0.01,0.000000,,2013-11-22 07:52:00,